sensor_id;sensor_type;location;lat;lon;timestamp;P1;durP1;ratioP1;P2;durP2;ratioP2
70761;SDS011;58360;0.000;0.000;2022-11-12T00:00:35;21.92;;;14.15;;
70761;SDS011;58360;0.000;0.000;2022-11-12T00:03:02;21.92;;;13.23;;
70761;SDS011;58360;0.000;0.000;2022-11-12T00:05:28;19.58;;;12.93;;
70761;SDS011;58360;0.000;0.000;2022-11-12T00:07:54;17.92;;;13.23;;
70761;SDS011;58360;0.000;0.000;2022-11-12T00:10:20;22.10;;;14.50;;
70761;SDS011;58360;0.000;0.000;2022-11-12T00:12:46;21.30;;;14.27;;
70761;SDS011;58360;0.000;0.000;2022-11-12T00:15:12;20.52;;;14.27;;
70761;SDS011;58360;0.000;0.000;2022-11-12T00:17:38;20.00;;;13.18;;
70761;SDS011;58360;0.000;0.000;2022-11-12T00:20:04;18.35;;;12.45;;
70761;SDS011;58360;0.000;0.000;2022-11-12T00:22:31;18.95;;;13.10;;
70761;SDS011;58360;0.000;0.000;2022-11-12T00:24:57;22.80;;;13.95;;
70761;SDS011;58360;0.000;0.000;2022-11-12T00:27:23;19.48;;;13.82;;
70761;SDS011;58360;0.000;0.000;2022-11-12T00:29:49;25.05;;;13.85;;
70761;SDS011;58360;0.000;0.000;2022-11-12T00:32:14;18.20;;;13.65;;
70761;SDS011;58360;0.000;0.000;2022-11-12T00:34:40;20.52;;;14.82;;
70761;SDS011;58360;0.000;0.000;2022-11-12T00:37:06;25.90;;;15.45;;
70761;SDS011;58360;0.000;0.000;2022-11-12T00:39:32;21.02;;;14.57;;
70761;SDS011;58360;0.000;0.000;2022-11-12T00:41:57;22.33;;;14.55;;
70761;SDS011;58360;0.000;0.000;2022-11-12T00:44:23;19.55;;;13.77;;
70761;SDS011;58360;0.000;0.000;2022-11-12T00:46:49;19.90;;;13.57;;
70761;SDS011;58360;0.000;0.000;2022-11-12T00:49:15;22.05;;;14.60;;
70761;SDS011;58360;0.000;0.000;2022-11-12T00:51:41;23.02;;;14.85;;
70761;SDS011;58360;0.000;0.000;2022-11-12T00:54:07;26.52;;;16.05;;
70761;SDS011;58360;0.000;0.000;2022-11-12T00:56:33;23.15;;;15.65;;
70761;SDS011;58360;0.000;0.000;2022-11-12T00:58:59;21.05;;;14.43;;
70761;SDS011;58360;0.000;0.000;2022-11-12T01:01:25;20.58;;;14.13;;
70761;SDS011;58360;0.000;0.000;2022-11-12T01:03:51;20.08;;;14.45;;
70761;SDS011;58360;0.000;0.000;2022-11-12T01:06:18;24.10;;;14.93;;
70761;SDS011;58360;0.000;0.000;2022-11-12T01:08:46;21.60;;;15.45;;
70761;SDS011;58360;0.000;0.000;2022-11-12T01:11:14;22.85;;;14.43;;
70761;SDS011;58360;0.000;0.000;2022-11-12T01:13:43;20.92;;;14.93;;
70761;SDS011;58360;0.000;0.000;2022-11-12T01:16:14;24.55;;;15.32;;
70761;SDS011;58360;0.000;0.000;2022-11-12T01:18:44;28.38;;;14.93;;
70761;SDS011;58360;0.000;0.000;2022-11-12T01:21:10;22.20;;;14.73;;
70761;SDS011;58360;0.000;0.000;2022-11-12T01:23:37;23.48;;;14.88;;
70761;SDS011;58360;0.000;0.000;2022-11-12T01:26:12;22.00;;;14.15;;
70761;SDS011;58360;0.000;0.000;2022-11-12T01:28:39;26.42;;;14.82;;
70761;SDS011;58360;0.000;0.000;2022-11-12T01:31:16;24.38;;;14.55;;
70761;SDS011;58360;0.000;0.000;2022-11-12T01:33:44;22.63;;;14.85;;
70761;SDS011;58360;0.000;0.000;2022-11-12T01:36:12;25.63;;;15.35;;
70761;SDS011;58360;0.000;0.000;2022-11-12T01:38:40;26.20;;;14.52;;
70761;SDS011;58360;0.000;0.000;2022-11-12T01:41:08;24.10;;;15.27;;
70761;SDS011;58360;0.000;0.000;2022-11-12T01:43:35;20.63;;;14.52;;
70761;SDS011;58360;0.000;0.000;2022-11-12T01:46:03;22.73;;;14.07;;
70761;SDS011;58360;0.000;0.000;2022-11-12T01:48:32;19.17;;;14.43;;
70761;SDS011;58360;0.000;0.000;2022-11-12T01:51:01;20.60;;;14.43;;
70761;SDS011;58360;0.000;0.000;2022-11-12T01:53:29;21.80;;;13.95;;
70761;SDS011;58360;0.000;0.000;2022-11-12T01:55:58;23.08;;;14.73;;
70761;SDS011;58360;0.000;0.000;2022-11-12T01:58:25;23.15;;;14.65;;
70761;SDS011;58360;0.000;0.000;2022-11-12T02:00:53;23.00;;;14.65;;
70761;SDS011;58360;0.000;0.000;2022-11-12T02:03:21;20.83;;;14.88;;
70761;SDS011;58360;0.000;0.000;2022-11-12T02:05:48;21.75;;;13.80;;
70761;SDS011;58360;0.000;0.000;2022-11-12T02:08:18;19.05;;;13.75;;
70761;SDS011;58360;0.000;0.000;2022-11-12T02:10:46;23.70;;;14.43;;
70761;SDS011;58360;0.000;0.000;2022-11-12T02:13:11;27.60;;;13.95;;
70761;SDS011;58360;0.000;0.000;2022-11-12T02:15:56;22.52;;;14.60;;
70761;SDS011;58360;0.000;0.000;2022-11-12T02:18:22;19.90;;;13.73;;
70761;SDS011;58360;0.000;0.000;2022-11-12T02:20:54;21.65;;;13.68;;
70761;SDS011;58360;0.000;0.000;2022-11-12T02:23:22;16.42;;;12.50;;
70761;SDS011;58360;0.000;0.000;2022-11-12T02:25:48;21.35;;;13.40;;
70761;SDS011;58360;0.000;0.000;2022-11-12T02:28:14;18.02;;;12.57;;
70761;SDS011;58360;0.000;0.000;2022-11-12T02:30:47;18.38;;;12.80;;
70761;SDS011;58360;0.000;0.000;2022-11-12T02:33:14;17.92;;;11.70;;
70761;SDS011;58360;0.000;0.000;2022-11-12T02:35:40;19.52;;;12.55;;
70761;SDS011;58360;0.000;0.000;2022-11-12T02:38:06;18.35;;;12.15;;
70761;SDS011;58360;0.000;0.000;2022-11-12T02:40:32;18.20;;;12.70;;
70761;SDS011;58360;0.000;0.000;2022-11-12T02:42:58;19.02;;;12.43;;
70761;SDS011;58360;0.000;0.000;2022-11-12T02:45:24;18.42;;;12.60;;
70761;SDS011;58360;0.000;0.000;2022-11-12T02:47:50;18.42;;;12.30;;
70761;SDS011;58360;0.000;0.000;2022-11-12T02:50:16;17.15;;;11.63;;
70761;SDS011;58360;0.000;0.000;2022-11-12T02:52:42;17.63;;;11.57;;
70761;SDS011;58360;0.000;0.000;2022-11-12T02:55:09;19.73;;;11.93;;
70761;SDS011;58360;0.000;0.000;2022-11-12T02:57:36;20.38;;;12.27;;
70761;SDS011;58360;0.000;0.000;2022-11-12T03:00:03;19.48;;;12.43;;
70761;SDS011;58360;0.000;0.000;2022-11-12T03:02:30;20.48;;;13.15;;
70761;SDS011;58360;0.000;0.000;2022-11-12T03:04:55;19.48;;;12.57;;
70761;SDS011;58360;0.000;0.000;2022-11-12T03:07:21;17.27;;;12.43;;
70761;SDS011;58360;0.000;0.000;2022-11-12T03:09:47;19.90;;;13.00;;
70761;SDS011;58360;0.000;0.000;2022-11-12T03:12:12;20.45;;;13.13;;
70761;SDS011;58360;0.000;0.000;2022-11-12T03:14:38;18.95;;;12.90;;
70761;SDS011;58360;0.000;0.000;2022-11-12T03:17:04;20.48;;;12.82;;
70761;SDS011;58360;0.000;0.000;2022-11-12T03:19:29;17.73;;;12.15;;
70761;SDS011;58360;0.000;0.000;2022-11-12T03:21:55;17.92;;;11.60;;
70761;SDS011;58360;0.000;0.000;2022-11-12T03:24:21;19.27;;;12.68;;
70761;SDS011;58360;0.000;0.000;2022-11-12T03:26:46;18.15;;;12.80;;
70761;SDS011;58360;0.000;0.000;2022-11-12T03:29:12;21.13;;;12.98;;
70761;SDS011;58360;0.000;0.000;2022-11-12T03:31:38;18.02;;;12.52;;
70761;SDS011;58360;0.000;0.000;2022-11-12T03:34:03;18.52;;;12.43;;
70761;SDS011;58360;0.000;0.000;2022-11-12T03:36:29;19.23;;;12.10;;
70761;SDS011;58360;0.000;0.000;2022-11-12T03:38:55;20.95;;;13.48;;
70761;SDS011;58360;0.000;0.000;2022-11-12T03:41:21;19.55;;;13.45;;
70761;SDS011;58360;0.000;0.000;2022-11-12T03:43:46;21.08;;;13.13;;
70761;SDS011;58360;0.000;0.000;2022-11-12T03:46:12;19.65;;;12.15;;
70761;SDS011;58360;0.000;0.000;2022-11-12T03:48:38;19.92;;;13.40;;
70761;SDS011;58360;0.000;0.000;2022-11-12T03:51:03;16.90;;;11.57;;
70761;SDS011;58360;0.000;0.000;2022-11-12T03:53:29;18.10;;;12.23;;
70761;SDS011;58360;0.000;0.000;2022-11-12T03:55:55;18.95;;;12.32;;
70761;SDS011;58360;0.000;0.000;2022-11-12T03:58:20;20.75;;;12.70;;
70761;SDS011;58360;0.000;0.000;2022-11-12T04:00:46;18.02;;;11.75;;
70761;SDS011;58360;0.000;0.000;2022-11-12T04:03:12;19.05;;;12.45;;
70761;SDS011;58360;0.000;0.000;2022-11-12T04:05:37;17.85;;;11.95;;
70761;SDS011;58360;0.000;0.000;2022-11-12T04:08:22;18.95;;;11.90;;
70761;SDS011;58360;0.000;0.000;2022-11-12T04:11:01;18.13;;;12.23;;
70761;SDS011;58360;0.000;0.000;2022-11-12T04:13:28;19.08;;;12.68;;
70761;SDS011;58360;0.000;0.000;2022-11-12T04:19:01;19.38;;;12.23;;
70761;SDS011;58360;0.000;0.000;2022-11-12T04:21:50;17.30;;;11.98;;
70761;SDS011;58360;0.000;0.000;2022-11-12T04:27:15;19.08;;;12.95;;
70761;SDS011;58360;0.000;0.000;2022-11-12T04:29:46;19.77;;;12.60;;
70761;SDS011;58360;0.000;0.000;2022-11-12T04:32:32;20.17;;;12.38;;
70761;SDS011;58360;0.000;0.000;2022-11-12T04:35:01;21.02;;;12.82;;
70761;SDS011;58360;0.000;0.000;2022-11-12T04:37:27;19.52;;;12.25;;
70761;SDS011;58360;0.000;0.000;2022-11-12T04:40:09;24.55;;;13.43;;
70761;SDS011;58360;0.000;0.000;2022-11-12T04:42:54;17.52;;;12.52;;
70761;SDS011;58360;0.000;0.000;2022-11-12T04:45:39;19.33;;;12.70;;
70761;SDS011;58360;0.000;0.000;2022-11-12T04:48:06;18.27;;;11.63;;
70761;SDS011;58360;0.000;0.000;2022-11-12T04:50:32;20.10;;;12.77;;
70761;SDS011;58360;0.000;0.000;2022-11-12T04:52:58;20.17;;;12.40;;
70761;SDS011;58360;0.000;0.000;2022-11-12T04:55:24;18.50;;;11.82;;
70761;SDS011;58360;0.000;0.000;2022-11-12T04:57:49;19.92;;;12.52;;
70761;SDS011;58360;0.000;0.000;2022-11-12T05:00:15;17.45;;;11.43;;
70761;SDS011;58360;0.000;0.000;2022-11-12T05:02:41;16.73;;;11.57;;
70761;SDS011;58360;0.000;0.000;2022-11-12T05:05:07;23.25;;;11.75;;
70761;SDS011;58360;0.000;0.000;2022-11-12T05:07:33;18.58;;;12.07;;
70761;SDS011;58360;0.000;0.000;2022-11-12T05:09:59;21.10;;;12.35;;
70761;SDS011;58360;0.000;0.000;2022-11-12T05:12:25;20.30;;;11.43;;
70761;SDS011;58360;0.000;0.000;2022-11-12T05:14:51;21.50;;;12.13;;
70761;SDS011;58360;0.000;0.000;2022-11-12T05:17:16;17.05;;;11.30;;
70761;SDS011;58360;0.000;0.000;2022-11-12T05:19:42;19.65;;;12.38;;
70761;SDS011;58360;0.000;0.000;2022-11-12T05:22:11;20.55;;;11.77;;
70761;SDS011;58360;0.000;0.000;2022-11-12T05:24:37;16.42;;;11.30;;
70761;SDS011;58360;0.000;0.000;2022-11-12T05:27:06;18.55;;;11.48;;
70761;SDS011;58360;0.000;0.000;2022-11-12T05:29:37;19.20;;;11.05;;
70761;SDS011;58360;0.000;0.000;2022-11-12T05:32:05;16.95;;;11.55;;
70761;SDS011;58360;0.000;0.000;2022-11-12T05:34:31;18.63;;;11.50;;
70761;SDS011;58360;0.000;0.000;2022-11-12T05:36:57;17.38;;;11.40;;
70761;SDS011;58360;0.000;0.000;2022-11-12T05:39:23;20.42;;;11.60;;
70761;SDS011;58360;0.000;0.000;2022-11-12T05:41:49;21.30;;;12.27;;
70761;SDS011;58360;0.000;0.000;2022-11-12T05:44:16;20.60;;;12.02;;
70761;SDS011;58360;0.000;0.000;2022-11-12T05:46:41;20.73;;;11.95;;
70761;SDS011;58360;0.000;0.000;2022-11-12T05:49:07;18.42;;;11.95;;
70761;SDS011;58360;0.000;0.000;2022-11-12T05:51:33;19.83;;;12.38;;
70761;SDS011;58360;0.000;0.000;2022-11-12T05:53:59;18.23;;;11.60;;
70761;SDS011;58360;0.000;0.000;2022-11-12T05:56:25;18.92;;;11.30;;
70761;SDS011;58360;0.000;0.000;2022-11-12T05:58:51;16.75;;;11.20;;
70761;SDS011;58360;0.000;0.000;2022-11-12T06:01:16;18.73;;;12.13;;
70761;SDS011;58360;0.000;0.000;2022-11-12T06:03:42;18.38;;;12.13;;
70761;SDS011;58360;0.000;0.000;2022-11-12T06:06:08;20.00;;;11.27;;
70761;SDS011;58360;0.000;0.000;2022-11-12T06:08:34;20.40;;;11.27;;
70761;SDS011;58360;0.000;0.000;2022-11-12T06:10:59;18.48;;;11.85;;
70761;SDS011;58360;0.000;0.000;2022-11-12T06:13:25;23.02;;;12.50;;
70761;SDS011;58360;0.000;0.000;2022-11-12T06:15:51;18.90;;;11.73;;
70761;SDS011;58360;0.000;0.000;2022-11-12T06:18:18;17.63;;;11.57;;
70761;SDS011;58360;0.000;0.000;2022-11-12T06:20:44;18.90;;;11.85;;
70761;SDS011;58360;0.000;0.000;2022-11-12T06:23:30;18.77;;;12.00;;
70761;SDS011;58360;0.000;0.000;2022-11-12T06:25:55;17.30;;;11.73;;
70761;SDS011;58360;0.000;0.000;2022-11-12T06:28:21;20.48;;;12.10;;
70761;SDS011;58360;0.000;0.000;2022-11-12T06:30:46;20.15;;;12.30;;
70761;SDS011;58360;0.000;0.000;2022-11-12T06:33:12;22.52;;;13.05;;
70761;SDS011;58360;0.000;0.000;2022-11-12T06:35:38;17.63;;;11.75;;
70761;SDS011;58360;0.000;0.000;2022-11-12T06:38:03;17.20;;;11.10;;
70761;SDS011;58360;0.000;0.000;2022-11-12T06:40:29;19.35;;;11.50;;
70761;SDS011;58360;0.000;0.000;2022-11-12T06:42:55;20.92;;;13.30;;
70761;SDS011;58360;0.000;0.000;2022-11-12T06:45:22;17.48;;;11.82;;
70761;SDS011;58360;0.000;0.000;2022-11-12T06:47:48;20.40;;;11.57;;
70761;SDS011;58360;0.000;0.000;2022-11-12T06:50:14;17.30;;;10.07;;
70761;SDS011;58360;0.000;0.000;2022-11-12T06:52:40;21.08;;;10.90;;
70761;SDS011;58360;0.000;0.000;2022-11-12T06:55:06;21.30;;;12.23;;
70761;SDS011;58360;0.000;0.000;2022-11-12T06:57:32;16.90;;;11.75;;
70761;SDS011;58360;0.000;0.000;2022-11-12T06:59:59;18.23;;;11.43;;
70761;SDS011;58360;0.000;0.000;2022-11-12T07:02:24;18.98;;;11.35;;
70761;SDS011;58360;0.000;0.000;2022-11-12T07:04:50;16.08;;;10.65;;
70761;SDS011;58360;0.000;0.000;2022-11-12T07:07:16;16.58;;;10.57;;
70761;SDS011;58360;0.000;0.000;2022-11-12T07:09:42;14.95;;;10.15;;
70761;SDS011;58360;0.000;0.000;2022-11-12T07:12:07;22.17;;;11.10;;
70761;SDS011;58360;0.000;0.000;2022-11-12T07:14:33;15.63;;;10.32;;
70761;SDS011;58360;0.000;0.000;2022-11-12T07:16:59;16.70;;;10.85;;
70761;SDS011;58360;0.000;0.000;2022-11-12T07:19:24;18.02;;;10.55;;
70761;SDS011;58360;0.000;0.000;2022-11-12T07:21:50;18.25;;;11.27;;
70761;SDS011;58360;0.000;0.000;2022-11-12T07:24:16;21.48;;;12.82;;
70761;SDS011;58360;0.000;0.000;2022-11-12T07:26:42;21.17;;;10.80;;
70761;SDS011;58360;0.000;0.000;2022-11-12T07:29:07;17.30;;;10.75;;
70761;SDS011;58360;0.000;0.000;2022-11-12T07:31:33;19.42;;;10.75;;
70761;SDS011;58360;0.000;0.000;2022-11-12T07:33:59;20.45;;;10.68;;
70761;SDS011;58360;0.000;0.000;2022-11-12T07:36:25;19.52;;;10.73;;
70761;SDS011;58360;0.000;0.000;2022-11-12T07:38:51;16.38;;;10.75;;
70761;SDS011;58360;0.000;0.000;2022-11-12T07:41:18;21.63;;;11.50;;
70761;SDS011;58360;0.000;0.000;2022-11-12T07:43:46;18.23;;;11.02;;
70761;SDS011;58360;0.000;0.000;2022-11-12T07:46:15;18.00;;;11.10;;
70761;SDS011;58360;0.000;0.000;2022-11-12T07:48:43;16.80;;;10.25;;
70761;SDS011;58360;0.000;0.000;2022-11-12T07:51:11;18.38;;;11.18;;
70761;SDS011;58360;0.000;0.000;2022-11-12T07:53:38;26.48;;;11.50;;
70761;SDS011;58360;0.000;0.000;2022-11-12T07:56:05;18.70;;;11.43;;
70761;SDS011;58360;0.000;0.000;2022-11-12T07:58:31;19.40;;;11.02;;
70761;SDS011;58360;0.000;0.000;2022-11-12T08:01:05;22.95;;;11.65;;
70761;SDS011;58360;0.000;0.000;2022-11-12T08:03:34;24.80;;;12.48;;
70761;SDS011;58360;0.000;0.000;2022-11-12T08:06:00;32.38;;;12.65;;
70761;SDS011;58360;0.000;0.000;2022-11-12T08:08:26;20.90;;;11.07;;
70761;SDS011;58360;0.000;0.000;2022-11-12T08:10:55;26.90;;;10.63;;
70761;SDS011;58360;0.000;0.000;2022-11-12T08:13:22;17.70;;;10.27;;
70761;SDS011;58360;0.000;0.000;2022-11-12T08:15:47;33.08;;;11.35;;
70761;SDS011;58360;0.000;0.000;2022-11-12T08:18:14;30.27;;;11.65;;
70761;SDS011;58360;0.000;0.000;2022-11-12T08:20:39;23.00;;;11.18;;
70761;SDS011;58360;0.000;0.000;2022-11-12T08:23:05;20.85;;;11.00;;
70761;SDS011;58360;0.000;0.000;2022-11-12T08:25:31;19.48;;;10.82;;
70761;SDS011;58360;0.000;0.000;2022-11-12T08:27:57;20.38;;;12.25;;
70761;SDS011;58360;0.000;0.000;2022-11-12T08:30:24;19.77;;;11.55;;
70761;SDS011;58360;0.000;0.000;2022-11-12T08:33:01;22.50;;;11.38;;
70761;SDS011;58360;0.000;0.000;2022-11-12T08:35:29;18.98;;;10.82;;
70761;SDS011;58360;0.000;0.000;2022-11-12T08:40:29;18.05;;;11.32;;
70761;SDS011;58360;0.000;0.000;2022-11-12T08:42:57;17.38;;;11.20;;
70761;SDS011;58360;0.000;0.000;2022-11-12T08:45:23;16.55;;;10.45;;
70761;SDS011;58360;0.000;0.000;2022-11-12T08:47:48;16.65;;;10.55;;
70761;SDS011;58360;0.000;0.000;2022-11-12T08:50:14;16.48;;;11.07;;
70761;SDS011;58360;0.000;0.000;2022-11-12T08:52:40;16.60;;;10.30;;
70761;SDS011;58360;0.000;0.000;2022-11-12T08:55:06;16.77;;;10.95;;
70761;SDS011;58360;0.000;0.000;2022-11-12T08:57:37;18.85;;;11.43;;
70761;SDS011;58360;0.000;0.000;2022-11-12T09:00:05;21.95;;;11.00;;
70761;SDS011;58360;0.000;0.000;2022-11-12T09:02:31;19.40;;;11.90;;
70761;SDS011;58360;0.000;0.000;2022-11-12T09:04:56;21.73;;;11.48;;
70761;SDS011;58360;0.000;0.000;2022-11-12T09:07:22;17.63;;;11.75;;
70761;SDS011;58360;0.000;0.000;2022-11-12T09:09:47;19.58;;;11.10;;
70761;SDS011;58360;0.000;0.000;2022-11-12T09:12:13;16.50;;;10.75;;
70761;SDS011;58360;0.000;0.000;2022-11-12T09:14:43;17.83;;;10.60;;
70761;SDS011;58360;0.000;0.000;2022-11-12T09:17:10;16.75;;;10.63;;
70761;SDS011;58360;0.000;0.000;2022-11-12T09:19:36;18.45;;;9.73;;
70761;SDS011;58360;0.000;0.000;2022-11-12T09:22:02;16.25;;;11.10;;
70761;SDS011;58360;0.000;0.000;2022-11-12T09:24:28;23.92;;;12.25;;
70761;SDS011;58360;0.000;0.000;2022-11-12T09:26:54;22.45;;;11.55;;
70761;SDS011;58360;0.000;0.000;2022-11-12T09:29:19;19.83;;;10.75;;
70761;SDS011;58360;0.000;0.000;2022-11-12T09:31:45;16.70;;;10.65;;
70761;SDS011;58360;0.000;0.000;2022-11-12T09:34:11;16.95;;;10.88;;
70761;SDS011;58360;0.000;0.000;2022-11-12T09:36:37;20.30;;;11.52;;
70761;SDS011;58360;0.000;0.000;2022-11-12T09:39:03;17.27;;;11.65;;
70761;SDS011;58360;0.000;0.000;2022-11-12T09:41:33;19.42;;;11.15;;
70761;SDS011;58360;0.000;0.000;2022-11-12T09:44:02;17.55;;;11.40;;
70761;SDS011;58360;0.000;0.000;2022-11-12T09:46:40;17.88;;;11.38;;
70761;SDS011;58360;0.000;0.000;2022-11-12T09:49:55;17.25;;;10.63;;
70761;SDS011;58360;0.000;0.000;2022-11-12T09:52:27;15.98;;;11.30;;
70761;SDS011;58360;0.000;0.000;2022-11-12T09:55:08;14.13;;;10.30;;
70761;SDS011;58360;0.000;0.000;2022-11-12T09:57:59;18.95;;;10.75;;
70761;SDS011;58360;0.000;0.000;2022-11-12T10:00:24;15.85;;;10.32;;
70761;SDS011;58360;0.000;0.000;2022-11-12T10:05:40;16.45;;;9.82;;
70761;SDS011;58360;0.000;0.000;2022-11-12T10:08:18;16.50;;;10.30;;
70761;SDS011;58360;0.000;0.000;2022-11-12T10:14:37;17.15;;;10.32;;
70761;SDS011;58360;0.000;0.000;2022-11-12T10:17:44;14.48;;;10.18;;
70761;SDS011;58360;0.000;0.000;2022-11-12T10:20:29;15.07;;;10.15;;
70761;SDS011;58360;0.000;0.000;2022-11-12T10:25:33;16.23;;;10.07;;
70761;SDS011;58360;0.000;0.000;2022-11-12T10:28:00;17.65;;;10.20;;
70761;SDS011;58360;0.000;0.000;2022-11-12T10:30:36;17.10;;;11.35;;
70761;SDS011;58360;0.000;0.000;2022-11-12T10:33:03;17.15;;;10.45;;
70761;SDS011;58360;0.000;0.000;2022-11-12T10:35:29;15.48;;;9.23;;
70761;SDS011;58360;0.000;0.000;2022-11-12T10:37:56;16.23;;;10.20;;
70761;SDS011;58360;0.000;0.000;2022-11-12T10:40:35;16.08;;;10.88;;
70761;SDS011;58360;0.000;0.000;2022-11-12T10:45:40;16.40;;;8.98;;
70761;SDS011;58360;0.000;0.000;2022-11-12T10:48:24;15.77;;;8.75;;
70761;SDS011;58360;0.000;0.000;2022-11-12T10:50:57;13.80;;;8.23;;
70761;SDS011;58360;0.000;0.000;2022-11-12T10:56:01;12.27;;;7.63;;
70761;SDS011;58360;0.000;0.000;2022-11-12T10:58:28;11.60;;;8.32;;
70761;SDS011;58360;0.000;0.000;2022-11-12T11:00:58;13.35;;;7.43;;
70761;SDS011;58360;0.000;0.000;2022-11-12T11:03:52;14.63;;;7.25;;
70761;SDS011;58360;0.000;0.000;2022-11-12T11:06:40;10.77;;;7.07;;
70761;SDS011;58360;0.000;0.000;2022-11-12T11:11:56;12.07;;;7.82;;
70761;SDS011;58360;0.000;0.000;2022-11-12T11:14:30;14.60;;;6.93;;
70761;SDS011;58360;0.000;0.000;2022-11-12T11:17:22;11.07;;;6.60;;
70761;SDS011;58360;0.000;0.000;2022-11-12T11:19:53;12.93;;;7.90;;
70761;SDS011;58360;0.000;0.000;2022-11-12T11:25:22;12.80;;;8.20;;
70761;SDS011;58360;0.000;0.000;2022-11-12T11:27:58;13.50;;;8.20;;
70761;SDS011;58360;0.000;0.000;2022-11-12T11:30:48;11.63;;;7.85;;
70761;SDS011;58360;0.000;0.000;2022-11-12T11:39:55;17.30;;;7.78;;
70761;SDS011;58360;0.000;0.000;2022-11-12T11:45:15;12.10;;;7.80;;
70761;SDS011;58360;0.000;0.000;2022-11-12T11:47:52;13.18;;;7.70;;
70761;SDS011;58360;0.000;0.000;2022-11-12T11:50:27;12.27;;;7.10;;
70761;SDS011;58360;0.000;0.000;2022-11-12T11:55:52;11.55;;;6.85;;
70761;SDS011;58360;0.000;0.000;2022-11-12T12:07:43;11.52;;;6.63;;
70761;SDS011;58360;0.000;0.000;2022-11-12T12:13:03;15.30;;;6.72;;
70761;SDS011;58360;0.000;0.000;2022-11-12T12:18:56;13.45;;;6.90;;
70761;SDS011;58360;0.000;0.000;2022-11-12T12:21:30;10.25;;;6.68;;
70761;SDS011;58360;0.000;0.000;2022-11-12T12:24:18;10.55;;;6.53;;
70761;SDS011;58360;0.000;0.000;2022-11-12T12:27:16;10.70;;;6.47;;
70761;SDS011;58360;0.000;0.000;2022-11-12T12:29:47;9.60;;;6.32;;
70761;SDS011;58360;0.000;0.000;2022-11-12T12:32:27;12.02;;;7.68;;
70761;SDS011;58360;0.000;0.000;2022-11-12T12:35:03;10.27;;;6.32;;
70761;SDS011;58360;0.000;0.000;2022-11-12T12:37:38;11.57;;;6.85;;
70761;SDS011;58360;0.000;0.000;2022-11-12T12:40:20;11.63;;;6.53;;
70761;SDS011;58360;0.000;0.000;2022-11-12T12:42:54;10.52;;;6.55;;
70761;SDS011;58360;0.000;0.000;2022-11-12T12:45:40;12.18;;;6.60;;
70761;SDS011;58360;0.000;0.000;2022-11-12T12:48:12;10.07;;;6.27;;
70761;SDS011;58360;0.000;0.000;2022-11-12T12:50:45;12.70;;;6.63;;
70761;SDS011;58360;0.000;0.000;2022-11-12T12:55:54;10.90;;;6.68;;
70761;SDS011;58360;0.000;0.000;2022-11-12T12:58:33;12.43;;;6.70;;
70761;SDS011;58360;0.000;0.000;2022-11-12T13:03:56;9.55;;;5.75;;
70761;SDS011;58360;0.000;0.000;2022-11-12T13:12:00;10.27;;;6.43;;
70761;SDS011;58360;0.000;0.000;2022-11-12T13:37:42;12.35;;;6.25;;
70761;SDS011;58360;0.000;0.000;2022-11-12T13:40:10;9.90;;;6.32;;
70761;SDS011;58360;0.000;0.000;2022-11-12T13:42:39;9.93;;;6.07;;
70761;SDS011;58360;0.000;0.000;2022-11-12T13:45:18;10.80;;;6.43;;
70761;SDS011;58360;0.000;0.000;2022-11-12T13:47:46;11.30;;;6.32;;
70761;SDS011;58360;0.000;0.000;2022-11-12T13:50:14;12.18;;;6.32;;
70761;SDS011;58360;0.000;0.000;2022-11-12T13:52:43;11.70;;;5.85;;
70761;SDS011;58360;0.000;0.000;2022-11-12T13:55:14;8.77;;;5.47;;
70761;SDS011;58360;0.000;0.000;2022-11-12T13:57:47;9.63;;;5.93;;
70761;SDS011;58360;0.000;0.000;2022-11-12T14:02:47;11.35;;;6.35;;
70761;SDS011;58360;0.000;0.000;2022-11-12T14:05:26;10.73;;;6.20;;
70761;SDS011;58360;0.000;0.000;2022-11-12T14:07:58;10.60;;;6.20;;
70761;SDS011;58360;0.000;0.000;2022-11-12T14:16:49;11.43;;;6.07;;
70761;SDS011;58360;0.000;0.000;2022-11-12T14:22:15;13.13;;;5.50;;
70761;SDS011;58360;0.000;0.000;2022-11-12T14:24:43;11.32;;;5.35;;
70761;SDS011;58360;0.000;0.000;2022-11-12T14:40:16;10.40;;;5.45;;
70761;SDS011;58360;0.000;0.000;2022-11-12T14:42:43;9.60;;;5.72;;
70761;SDS011;58360;0.000;0.000;2022-11-12T14:45:14;11.25;;;5.90;;
70761;SDS011;58360;0.000;0.000;2022-11-12T14:47:42;13.85;;;5.32;;
70761;SDS011;58360;0.000;0.000;2022-11-12T14:50:16;12.25;;;5.63;;
70761;SDS011;58360;0.000;0.000;2022-11-12T14:52:47;12.45;;;6.10;;
70761;SDS011;58360;0.000;0.000;2022-11-12T14:55:20;11.27;;;5.50;;
70761;SDS011;58360;0.000;0.000;2022-11-12T14:57:49;13.50;;;5.43;;
70761;SDS011;58360;0.000;0.000;2022-11-12T15:00:16;12.50;;;5.88;;
70761;SDS011;58360;0.000;0.000;2022-11-12T15:02:43;12.65;;;5.65;;
70761;SDS011;58360;0.000;0.000;2022-11-12T15:05:14;11.65;;;6.05;;
70761;SDS011;58360;0.000;0.000;2022-11-12T15:10:52;7.80;;;5.07;;
70761;SDS011;58360;0.000;0.000;2022-11-12T15:13:21;13.40;;;5.68;;
70761;SDS011;58360;0.000;0.000;2022-11-12T15:16:00;12.45;;;5.13;;
70761;SDS011;58360;0.000;0.000;2022-11-12T15:18:35;11.35;;;5.72;;
70761;SDS011;58360;0.000;0.000;2022-11-12T15:26:41;11.32;;;5.28;;
70761;SDS011;58360;0.000;0.000;2022-11-12T15:37:24;13.25;;;5.47;;
70761;SDS011;58360;0.000;0.000;2022-11-12T15:39:54;12.68;;;5.68;;
70761;SDS011;58360;0.000;0.000;2022-11-12T15:42:26;9.75;;;5.80;;
70761;SDS011;58360;0.000;0.000;2022-11-12T15:44:59;10.13;;;5.72;;
70761;SDS011;58360;0.000;0.000;2022-11-12T15:47:28;9.73;;;5.50;;
70761;SDS011;58360;0.000;0.000;2022-11-12T15:49:55;8.63;;;5.70;;
70761;SDS011;58360;0.000;0.000;2022-11-12T15:52:40;9.88;;;5.22;;
70761;SDS011;58360;0.000;0.000;2022-11-12T15:55:08;12.38;;;5.70;;
70761;SDS011;58360;0.000;0.000;2022-11-12T15:57:40;11.00;;;5.95;;
70761;SDS011;58360;0.000;0.000;2022-11-12T16:00:16;12.13;;;5.55;;
70761;SDS011;58360;0.000;0.000;2022-11-12T16:02:49;10.98;;;6.10;;
70761;SDS011;58360;0.000;0.000;2022-11-12T16:05:21;16.23;;;5.00;;
70761;SDS011;58360;0.000;0.000;2022-11-12T16:07:47;14.35;;;5.28;;
70761;SDS011;58360;0.000;0.000;2022-11-12T16:10:13;9.73;;;5.35;;
70761;SDS011;58360;0.000;0.000;2022-11-12T16:12:40;10.02;;;5.28;;
70761;SDS011;58360;0.000;0.000;2022-11-12T16:15:17;13.00;;;5.53;;
70761;SDS011;58360;0.000;0.000;2022-11-12T16:17:45;9.73;;;5.70;;
70761;SDS011;58360;0.000;0.000;2022-11-12T16:20:16;12.70;;;5.55;;
70761;SDS011;58360;0.000;0.000;2022-11-12T16:22:47;16.75;;;6.55;;
70761;SDS011;58360;0.000;0.000;2022-11-12T16:25:14;11.30;;;5.88;;
70761;SDS011;58360;0.000;0.000;2022-11-12T16:27:41;13.82;;;5.97;;
70761;SDS011;58360;0.000;0.000;2022-11-12T16:30:17;9.90;;;5.55;;
70761;SDS011;58360;0.000;0.000;2022-11-12T16:32:45;9.43;;;6.00;;
70761;SDS011;58360;0.000;0.000;2022-11-12T16:35:12;13.23;;;7.03;;
70761;SDS011;58360;0.000;0.000;2022-11-12T16:37:39;11.43;;;6.28;;
70761;SDS011;58360;0.000;0.000;2022-11-12T16:40:08;13.40;;;6.10;;
70761;SDS011;58360;0.000;0.000;2022-11-12T16:42:38;11.18;;;5.78;;
70761;SDS011;58360;0.000;0.000;2022-11-12T16:45:09;9.13;;;5.43;;
70761;SDS011;58360;0.000;0.000;2022-11-12T16:47:39;10.32;;;5.80;;
70761;SDS011;58360;0.000;0.000;2022-11-12T16:50:11;13.05;;;5.90;;
70761;SDS011;58360;0.000;0.000;2022-11-12T16:52:38;12.57;;;6.30;;
70761;SDS011;58360;0.000;0.000;2022-11-12T16:55:04;24.83;;;6.82;;
70761;SDS011;58360;0.000;0.000;2022-11-12T16:57:30;12.02;;;6.80;;
70761;SDS011;58360;0.000;0.000;2022-11-12T16:59:57;10.45;;;6.97;;
70761;SDS011;58360;0.000;0.000;2022-11-12T17:02:23;13.98;;;7.68;;